createdAt,value
2023-04-23T00:00:27.876Z,12.70
2023-04-23T00:01:27.787Z,12.67
2023-04-23T00:02:27.895Z,12.67
2023-04-23T00:03:28.109Z,12.66
2023-04-23T00:04:27.866Z,12.64
2023-04-23T00:05:27.849Z,12.63
2023-04-23T00:06:27.756Z,12.64
2023-04-23T00:07:27.749Z,12.64
2023-04-23T00:08:27.747Z,12.64
2023-04-23T00:09:27.791Z,12.64
2023-04-23T00:10:27.723Z,12.64
2023-04-23T00:11:27.657Z,12.66
2023-04-23T00:12:27.671Z,12.66
2023-04-23T00:13:27.648Z,12.64
2023-04-23T00:14:27.664Z,12.64
2023-04-23T00:15:27.722Z,12.64
2023-04-23T00:16:27.652Z,12.63
2023-04-23T00:17:27.658Z,12.62
2023-04-23T00:18:27.585Z,12.60
2023-04-23T00:19:27.571Z,12.60
2023-04-23T00:20:27.594Z,12.60
2023-04-23T00:21:27.674Z,12.60
2023-04-23T00:22:27.557Z,12.62
2023-04-23T00:23:27.485Z,12.59
2023-04-23T00:24:27.497Z,12.60
2023-04-23T00:25:27.494Z,12.63
2023-04-23T00:26:27.495Z,12.62
2023-04-23T00:27:27.495Z,12.57
2023-04-23T00:28:27.475Z,12.54
2023-04-23T00:29:27.402Z,12.51
2023-04-23T00:30:27.426Z,12.49
2023-04-23T00:31:27.463Z,12.51
2023-04-23T00:32:27.445Z,12.51
2023-04-23T00:33:27.462Z,12.51
2023-04-23T00:34:27.395Z,12.49
2023-04-23T00:35:27.327Z,12.46
2023-04-23T00:36:27.346Z,12.46
2023-04-23T00:37:27.328Z,12.46
2023-04-23T00:38:27.322Z,12.42
2023-04-23T00:39:27.424Z,12.37
2023-04-23T00:40:27.306Z,12.30
2023-04-23T00:41:27.265Z,12.29
2023-04-23T00:42:27.285Z,12.24
2023-04-23T00:43:27.225Z,12.23
2023-04-23T00:44:27.221Z,12.23
2023-04-23T00:45:27.248Z,12.20
2023-04-23T00:46:27.232Z,12.19
2023-04-23T00:47:27.195Z,12.15
2023-04-23T00:48:27.173Z,12.12
2023-04-23T00:49:27.160Z,12.13
2023-04-23T00:50:27.156Z,12.08
2023-04-23T00:51:27.242Z,12.05
2023-04-23T00:52:27.152Z,11.99
2023-04-23T00:53:27.084Z,11.96
2023-04-23T00:54:27.122Z,11.94
2023-04-23T00:55:27.067Z,11.90
2023-04-23T00:56:27.076Z,11.87
2023-04-23T00:57:27.073Z,11.82
2023-04-23T00:58:27.043Z,11.80
2023-04-23T00:59:27.032Z,11.78
2023-04-23T01:00:27.054Z,11.75
2023-04-23T01:01:26.982Z,11.75
2023-04-23T01:02:27.176Z,11.74
2023-04-23T01:03:27.203Z,11.74
2023-04-23T01:04:27.007Z,11.72
2023-04-23T01:05:26.956Z,11.71
2023-04-23T01:06:26.940Z,11.71
2023-04-23T01:07:26.920Z,11.70
2023-04-23T01:08:26.931Z,11.67
2023-04-23T01:09:26.916Z,11.65
2023-04-23T01:10:26.908Z,11.64
2023-04-23T01:11:26.845Z,11.62
2023-04-23T01:12:26.868Z,11.62
2023-04-23T01:13:26.854Z,11.62
2023-04-23T01:14:26.836Z,11.62
2023-04-23T01:15:26.942Z,11.61
2023-04-23T01:16:26.869Z,11.59
2023-04-23T01:17:26.778Z,11.59
2023-04-23T01:18:26.802Z,11.57
2023-04-23T01:19:26.763Z,11.56
2023-04-23T01:20:26.781Z,11.54
2023-04-23T01:21:26.830Z,11.56
2023-04-23T01:22:26.747Z,11.54
2023-04-23T01:23:26.696Z,11.53
2023-04-23T01:24:26.710Z,11.52
2023-04-23T01:25:26.684Z,11.52
2023-04-23T01:26:26.667Z,11.49
2023-04-23T01:27:26.677Z,11.49
2023-04-23T01:28:26.697Z,11.49
2023-04-23T01:29:26.614Z,11.49
2023-04-23T01:30:26.641Z,11.47
2023-04-23T01:31:26.617Z,11.47
2023-04-23T01:32:26.616Z,11.44
2023-04-23T01:33:26.607Z,11.43
2023-04-23T01:34:26.596Z,11.43
2023-04-23T01:35:26.524Z,11.43
2023-04-23T01:36:26.542Z,11.41
2023-04-23T01:37:26.526Z,11.34
2023-04-23T01:38:26.505Z,11.34
2023-04-23T01:39:26.543Z,11.34
2023-04-23T01:40:26.512Z,11.34
2023-04-23T01:41:26.458Z,11.31
2023-04-23T01:42:26.493Z,11.27
2023-04-23T01:43:26.414Z,11.24
2023-04-23T01:44:26.437Z,11.21
2023-04-23T01:45:26.455Z,11.19
2023-04-23T01:46:26.427Z,11.16
2023-04-23T01:47:26.411Z,11.14
2023-04-23T01:48:26.403Z,11.13
2023-04-23T01:49:26.338Z,11.11
2023-04-23T01:50:26.361Z,11.11
2023-04-23T01:51:26.434Z,11.07
2023-04-23T01:52:26.356Z,11.06
2023-04-23T01:53:26.275Z,11.03
2023-04-23T01:54:26.322Z,11.01
2023-04-23T01:55:26.260Z,11.02
2023-04-23T01:56:26.262Z,11.02
2023-04-23T01:57:26.470Z,10.99
2023-04-23T01:58:26.238Z,10.98
2023-04-23T01:59:26.222Z,10.96
2023-04-23T02:00:26.237Z,10.96
2023-04-23T02:01:26.243Z,10.98
2023-04-23T02:02:26.314Z,10.95
2023-04-23T02:03:26.275Z,10.95
2023-04-23T02:04:26.277Z,10.95
2023-04-23T02:05:26.143Z,10.95
2023-04-23T02:06:26.131Z,10.95
2023-04-23T02:07:26.113Z,10.96
2023-04-23T02:08:26.131Z,10.94
2023-04-23T02:09:26.118Z,10.96
2023-04-23T02:10:26.158Z,10.96
2023-04-23T02:11:26.037Z,10.96
2023-04-23T02:12:26.059Z,10.94
2023-04-23T02:13:26.034Z,10.89
2023-04-23T02:14:26.021Z,10.88
2023-04-23T02:15:26.144Z,10.86
2023-04-23T02:16:26.063Z,10.84
2023-04-23T02:17:25.973Z,10.81
2023-04-23T02:18:25.996Z,10.78
2023-04-23T02:19:25.927Z,10.81
2023-04-23T02:20:25.943Z,10.78
2023-04-23T02:21:25.951Z,10.74
2023-04-23T02:22:25.940Z,10.74
2023-04-23T02:23:25.878Z,10.73
2023-04-23T02:24:25.900Z,10.71
2023-04-23T02:25:25.882Z,10.68
2023-04-23T02:26:25.858Z,10.66
2023-04-23T02:27:25.974Z,10.63
2023-04-23T02:28:25.860Z,10.62
2023-04-23T02:29:25.795Z,10.60
2023-04-23T02:30:25.841Z,10.58
2023-04-23T02:31:25.853Z,10.53
2023-04-23T02:32:25.794Z,10.53
2023-04-23T02:33:25.895Z,10.51
2023-04-23T02:34:25.755Z,10.46
2023-04-23T02:35:25.733Z,10.47
2023-04-23T02:36:25.745Z,10.47
2023-04-23T02:37:25.681Z,10.51
2023-04-23T02:38:25.713Z,10.52
2023-04-23T02:39:25.819Z,10.46
2023-04-23T02:40:25.698Z,10.44
2023-04-23T02:41:25.623Z,10.43
2023-04-23T02:42:25.670Z,10.43
2023-04-23T02:43:25.602Z,10.42
2023-04-23T02:44:25.613Z,10.43
2023-04-23T02:45:25.723Z,10.42
2023-04-23T02:46:25.618Z,10.43
2023-04-23T02:47:25.642Z,10.42
2023-04-23T02:48:25.595Z,10.39
2023-04-23T02:49:25.509Z,10.37
2023-04-23T02:50:25.559Z,10.36
2023-04-23T02:51:25.600Z,10.36
2023-04-23T02:52:25.574Z,10.36
2023-04-23T02:53:25.488Z,10.36
2023-04-23T02:54:25.509Z,10.33
2023-04-23T02:55:25.455Z,10.32
2023-04-23T02:56:25.488Z,10.30
2023-04-23T02:57:25.488Z,10.28
2023-04-23T02:58:25.424Z,10.25
2023-04-23T02:59:25.412Z,10.24
2023-04-23T03:00:25.453Z,10.25
2023-04-23T03:01:25.433Z,10.24
2023-04-23T03:02:25.515Z,10.22
2023-04-23T03:03:25.452Z,10.21
2023-04-23T03:04:25.334Z,10.21
2023-04-23T03:05:25.403Z,10.21
2023-04-23T03:06:25.309Z,10.19
2023-04-23T03:07:25.301Z,10.18
2023-04-23T03:08:25.314Z,10.17
2023-04-23T03:09:25.270Z,10.18
2023-04-23T03:10:25.288Z,10.18
2023-04-23T03:11:25.219Z,10.18
2023-04-23T03:12:25.236Z,10.19
2023-04-23T03:13:25.216Z,10.18
2023-04-23T03:14:25.218Z,10.18
2023-04-23T03:15:25.240Z,10.17
2023-04-23T03:16:25.211Z,10.15
2023-04-23T03:17:25.157Z,10.15
2023-04-23T03:18:25.174Z,10.15
2023-04-23T03:19:25.108Z,10.14
2023-04-23T03:20:25.123Z,10.14
2023-04-23T03:21:25.138Z,10.14
2023-04-23T03:22:25.094Z,10.10
2023-04-23T03:23:25.083Z,10.07
2023-04-23T03:24:25.099Z,10.09
2023-04-23T03:25:25.025Z,10.10
2023-04-23T03:26:25.040Z,10.10
2023-04-23T03:27:25.059Z,10.10
2023-04-23T03:28:25.038Z,10.10
2023-04-23T03:29:24.970Z,10.09
2023-04-23T03:30:25.010Z,10.10
2023-04-23T03:31:24.966Z,10.14
2023-04-23T03:32:24.998Z,10.10
2023-04-23T03:33:25.073Z,10.09
2023-04-23T03:34:24.931Z,10.07
2023-04-23T03:35:24.920Z,10.07
2023-04-23T03:36:24.928Z,10.07
2023-04-23T03:37:24.866Z,10.06
2023-04-23T03:38:24.922Z,10.04
2023-04-23T03:39:24.866Z,10.03
2023-04-23T03:40:24.848Z,10.00
2023-04-23T03:41:24.841Z,10.00
2023-04-23T03:42:24.840Z,9.97
2023-04-23T03:43:24.787Z,9.99
2023-04-23T03:44:24.801Z,10.00
2023-04-23T03:45:24.892Z,10.00
2023-04-23T03:46:24.820Z,9.97
2023-04-23T03:47:24.776Z,9.97
2023-04-23T03:48:24.766Z,9.96
2023-04-23T03:49:24.700Z,9.94
2023-04-23T03:50:24.741Z,9.93
2023-04-23T03:51:24.702Z,9.93
2023-04-23T03:52:24.676Z,9.93
2023-04-23T03:53:24.676Z,9.94
2023-04-23T03:54:24.649Z,9.94
2023-04-23T03:55:24.654Z,9.93
2023-04-23T03:56:26.967Z,9.91
2023-04-23T03:57:24.632Z,9.88
2023-04-23T03:58:24.607Z,9.86
2023-04-23T03:59:24.585Z,9.86
2023-04-23T04:00:24.596Z,9.85
2023-04-23T04:01:24.533Z,9.83
2023-04-23T04:02:24.756Z,9.83
2023-04-23T04:03:24.788Z,9.82
2023-04-23T04:04:24.837Z,9.81
2023-04-23T04:05:24.587Z,9.78
2023-04-23T04:06:24.495Z,9.75
2023-04-23T04:07:24.481Z,9.73
2023-04-23T04:08:24.498Z,9.73
2023-04-23T04:09:24.538Z,9.70
2023-04-23T04:10:24.484Z,9.71
2023-04-23T04:11:24.394Z,9.71
2023-04-23T04:12:24.420Z,9.71
2023-04-23T04:13:24.400Z,9.73
2023-04-23T04:14:24.407Z,9.71
2023-04-23T04:15:24.485Z,9.71
2023-04-23T04:16:24.382Z,9.73
2023-04-23T04:17:24.391Z,9.75
2023-04-23T04:18:24.313Z,9.76
2023-04-23T04:19:24.349Z,9.81
2023-04-23T04:20:24.313Z,9.81
2023-04-23T04:21:24.330Z,9.81
2023-04-23T04:22:24.272Z,9.78
2023-04-23T04:23:24.274Z,9.78
2023-04-23T04:24:25.702Z,9.75
2023-04-23T04:25:24.259Z,9.76
2023-04-23T04:26:24.198Z,9.75
2023-04-23T04:27:24.282Z,9.76
2023-04-23T04:28:24.186Z,9.78
2023-04-23T04:29:24.203Z,9.79
2023-04-23T04:30:24.153Z,9.79
2023-04-23T04:31:24.220Z,9.78
2023-04-23T04:32:24.201Z,9.78
2023-04-23T04:33:24.239Z,9.81
2023-04-23T04:34:24.111Z,9.82
2023-04-23T04:35:24.123Z,9.81
2023-04-23T04:36:24.065Z,9.82
2023-04-23T04:37:24.113Z,9.79
2023-04-23T04:38:24.032Z,9.79
2023-04-23T04:39:24.091Z,9.78
2023-04-23T04:40:24.066Z,9.76
2023-04-23T04:41:24.033Z,9.75
2023-04-23T04:42:24.003Z,9.75
2023-04-23T04:43:23.990Z,9.75
2023-04-23T04:44:23.954Z,9.76
2023-04-23T04:45:24.098Z,9.78
2023-04-23T04:46:24.001Z,9.78
2023-04-23T04:47:23.966Z,9.81
2023-04-23T04:48:23.896Z,9.79
2023-04-23T04:49:23.951Z,9.79
2023-04-23T04:50:23.865Z,9.82
2023-04-23T04:51:23.941Z,9.79
2023-04-23T04:52:23.879Z,9.82
2023-04-23T04:53:23.876Z,9.82
2023-04-23T04:54:23.832Z,9.85
2023-04-23T04:55:23.820Z,9.86
2023-04-23T04:56:23.778Z,9.85
2023-04-23T04:57:23.879Z,9.85
2023-04-23T04:58:23.770Z,9.83
2023-04-23T04:59:23.803Z,9.86
2023-04-23T05:00:23.756Z,9.85
2023-04-23T05:01:23.781Z,9.86
2023-04-23T05:02:23.809Z,9.88
2023-04-23T05:03:23.953Z,9.88
2023-04-23T05:04:23.804Z,9.88
2023-04-23T05:05:23.678Z,9.89
2023-04-23T05:06:23.672Z,9.89
2023-04-23T05:07:23.661Z,9.91
2023-04-23T05:08:23.628Z,9.91
2023-04-23T05:09:23.782Z,9.91
2023-04-23T05:10:23.599Z,9.94
2023-04-23T05:11:23.632Z,9.96
2023-04-23T05:12:23.598Z,9.97
2023-04-23T05:13:23.586Z,9.97
2023-04-23T05:14:23.566Z,9.94
2023-04-23T05:15:23.596Z,9.96
2023-04-23T05:16:23.564Z,9.94
2023-04-23T05:17:23.573Z,9.93
2023-04-23T05:18:23.489Z,9.94
2023-04-23T05:19:23.524Z,9.93
2023-04-23T05:20:23.474Z,9.93
2023-04-23T05:21:23.510Z,9.91
2023-04-23T05:22:23.458Z,9.93
2023-04-23T05:23:23.439Z,9.93
2023-04-23T05:24:23.410Z,9.91
2023-04-23T05:25:23.444Z,9.88
2023-04-23T05:26:23.369Z,9.85
2023-04-23T05:27:23.458Z,9.83
2023-04-23T05:28:23.376Z,9.82
2023-04-23T05:29:23.374Z,9.81
2023-04-23T05:30:23.376Z,9.81
2023-04-23T05:31:23.359Z,9.79
2023-04-23T05:32:23.359Z,9.76
2023-04-23T05:33:23.373Z,9.76
2023-04-23T05:34:23.291Z,9.79
2023-04-23T05:35:23.272Z,9.78
2023-04-23T05:36:23.249Z,9.79
2023-04-23T05:37:23.275Z,9.83
2023-04-23T05:38:23.214Z,9.88
2023-04-23T05:39:23.364Z,9.89
2023-04-23T05:40:23.203Z,9.91
2023-04-23T05:41:23.209Z,9.94
2023-04-23T05:42:23.179Z,9.97
2023-04-23T05:43:23.166Z,9.97
2023-04-23T05:44:23.124Z,10.00
2023-04-23T05:45:23.196Z,10.01
2023-04-23T05:46:23.144Z,10.03
2023-04-23T05:47:23.171Z,10.06
2023-04-23T05:48:23.093Z,10.09
2023-04-23T05:49:23.082Z,10.10
2023-04-23T05:50:23.031Z,10.12
2023-04-23T05:51:23.104Z,10.15
2023-04-23T05:52:23.034Z,10.18
2023-04-23T05:53:23.023Z,10.22
2023-04-23T05:54:23.003Z,10.26
2023-04-23T05:55:23.001Z,10.33
2023-04-23T05:56:22.951Z,10.32
2023-04-23T05:57:23.434Z,10.37
2023-04-23T05:58:22.935Z,10.39
2023-04-23T05:59:22.986Z,10.44
2023-04-23T06:00:22.937Z,10.47
2023-04-23T06:01:22.972Z,10.53
2023-04-23T06:02:24.673Z,10.58
2023-04-23T06:03:23.065Z,10.58
2023-04-23T06:04:23.092Z,10.56
2023-04-23T06:05:23.089Z,10.56
2023-04-23T06:06:22.845Z,10.56
2023-04-23T06:07:22.832Z,10.55
2023-04-23T06:08:24.895Z,10.56
2023-04-23T06:09:22.877Z,10.58
2023-04-23T06:10:22.755Z,10.56
2023-04-23T06:11:22.797Z,10.53
2023-04-23T06:12:22.757Z,10.53
2023-04-23T06:13:22.744Z,10.53
2023-04-23T06:14:22.739Z,10.52
2023-04-23T06:15:22.840Z,10.55
2023-04-23T06:16:22.717Z,10.56
2023-04-23T06:17:22.717Z,10.56
2023-04-23T06:18:22.640Z,10.58
2023-04-23T06:19:22.685Z,10.59
2023-04-23T06:20:22.662Z,10.62
2023-04-23T06:21:22.686Z,10.66
2023-04-23T06:22:22.634Z,10.70
2023-04-23T06:23:22.602Z,10.74
2023-04-23T06:24:22.567Z,10.81
2023-04-23T06:25:22.602Z,10.91
2023-04-23T06:26:22.536Z,10.95
2023-04-23T06:27:22.636Z,11.02
2023-04-23T06:28:22.536Z,11.10
2023-04-23T06:29:22.541Z,11.14
2023-04-23T06:30:22.507Z,11.16
2023-04-23T06:31:22.530Z,11.19
2023-04-23T06:32:22.461Z,11.24
2023-04-23T06:33:22.521Z,11.25
2023-04-23T06:34:22.441Z,11.24
2023-04-23T06:35:22.468Z,11.24
2023-04-23T06:36:22.441Z,11.24
2023-04-23T06:37:22.431Z,11.27
2023-04-23T06:38:22.369Z,11.31
2023-04-23T06:39:22.527Z,11.32
2023-04-23T06:40:22.374Z,11.35
2023-04-23T06:41:22.382Z,11.36
2023-04-23T06:42:22.348Z,11.41
2023-04-23T06:43:22.327Z,11.47
2023-04-23T06:44:22.287Z,11.54
2023-04-23T06:45:22.373Z,11.62
2023-04-23T06:46:22.281Z,11.65
2023-04-23T06:47:22.309Z,11.71
2023-04-23T06:48:22.267Z,11.75
2023-04-23T06:49:22.251Z,11.82
2023-04-23T06:50:22.229Z,11.82
2023-04-23T06:51:22.261Z,11.87
2023-04-23T06:52:22.182Z,11.94
2023-04-23T06:53:22.479Z,12.06
2023-04-23T06:54:22.193Z,12.09
2023-04-23T06:55:22.176Z,12.20
2023-04-23T06:56:22.124Z,12.37
2023-04-23T06:57:22.242Z,12.46
2023-04-23T06:58:22.104Z,12.60
2023-04-23T06:59:22.157Z,12.63
2023-04-23T07:00:22.094Z,12.71
2023-04-23T07:01:22.171Z,12.81
2023-04-23T07:02:22.086Z,12.97
2023-04-23T07:03:22.261Z,13.17
2023-04-23T07:04:22.078Z,13.27
2023-04-23T07:05:22.071Z,13.37
2023-04-23T07:06:22.253Z,13.55
2023-04-23T07:07:22.049Z,13.61
2023-04-23T07:08:22.025Z,13.69
2023-04-23T07:09:22.021Z,13.76
2023-04-23T07:10:22.048Z,13.84
2023-04-23T07:11:21.998Z,13.91
2023-04-23T07:12:21.950Z,13.98
2023-04-23T07:13:21.950Z,14.06
2023-04-23T07:14:22.012Z,13.94
2023-04-23T07:15:21.962Z,14.01
2023-04-23T07:16:22.271Z,14.27
2023-04-23T07:17:21.997Z,14.34
2023-04-23T07:18:22.687Z,14.27
2023-04-23T07:19:22.004Z,14.14
2023-04-23T07:20:21.853Z,14.01
2023-04-23T07:21:21.880Z,14.10
2023-04-23T07:22:21.834Z,13.99
2023-04-23T07:23:21.821Z,14.14
2023-04-23T07:24:21.770Z,14.31
2023-04-23T07:25:21.799Z,14.42
2023-04-23T07:26:21.752Z,14.62
2023-04-23T07:27:21.923Z,14.84
2023-04-23T07:28:21.739Z,15.01
2023-04-23T07:29:21.737Z,15.21
2023-04-23T07:30:21.726Z,15.36
2023-04-23T07:31:21.717Z,15.09
2023-04-23T07:32:21.682Z,15.13
2023-04-23T07:33:21.753Z,15.21
2023-04-23T07:34:21.641Z,15.31
2023-04-23T07:35:21.683Z,15.42
2023-04-23T07:36:21.658Z,15.57
2023-04-23T07:37:21.632Z,15.63
2023-04-23T07:38:21.611Z,15.68
2023-04-23T07:39:21.642Z,15.84
2023-04-23T07:40:21.555Z,16.09
2023-04-23T07:41:21.602Z,16.14
2023-04-23T07:42:21.567Z,15.93
2023-04-23T07:43:21.562Z,15.88
2023-04-23T07:44:21.491Z,15.94
2023-04-23T07:45:21.571Z,15.96
2023-04-23T07:46:21.532Z,16.01
2023-04-23T07:47:21.541Z,16.06
2023-04-23T07:48:21.471Z,16.14
2023-04-23T07:49:21.460Z,16.20
2023-04-23T07:50:21.453Z,16.22
2023-04-23T07:51:21.465Z,16.27
2023-04-23T07:52:21.398Z,16.27
2023-04-23T07:53:21.455Z,16.16
2023-04-23T07:54:21.387Z,16.26
2023-04-23T07:55:21.412Z,16.34
2023-04-23T07:56:21.378Z,16.37
2023-04-23T07:57:21.383Z,16.42
2023-04-23T07:58:21.312Z,16.62
2023-04-23T07:59:21.360Z,16.78
2023-04-23T08:00:21.317Z,16.96
2023-04-23T08:01:21.307Z,17.22
2023-04-23T08:02:21.337Z,17.40
2023-04-23T08:03:21.454Z,17.50
2023-04-23T08:04:21.444Z,17.44
2023-04-23T08:05:21.338Z,17.46
2023-04-23T08:06:21.208Z,17.43
2023-04-23T08:07:21.254Z,17.55
2023-04-23T08:08:21.210Z,17.55
2023-04-23T08:09:21.226Z,17.71
2023-04-23T08:10:21.177Z,17.67
2023-04-23T08:11:21.164Z,17.57
2023-04-23T08:12:21.125Z,17.54
2023-04-23T08:13:21.169Z,17.55
2023-04-23T08:14:21.133Z,17.47
2023-04-23T08:15:21.144Z,17.51
2023-04-23T08:16:21.099Z,17.64
2023-04-23T08:17:21.135Z,17.85
2023-04-23T08:18:21.051Z,18.17
2023-04-23T08:19:21.082Z,18.17
2023-04-23T08:20:21.040Z,18.09
2023-04-23T08:21:21.142Z,18.28
2023-04-23T08:22:22.181Z,18.52
2023-04-23T08:23:20.985Z,18.77
2023-04-23T08:24:20.963Z,18.95
2023-04-23T08:25:21.045Z,19.10
2023-04-23T08:26:20.927Z,19.01
2023-04-23T08:27:21.103Z,18.94
2023-04-23T08:28:20.927Z,19.08
2023-04-23T08:29:20.966Z,19.33
2023-04-23T08:30:20.926Z,19.47
2023-04-23T08:31:26.571Z,19.46
2023-04-23T08:32:22.209Z,19.40
2023-04-23T08:33:20.856Z,19.17
2023-04-23T08:34:20.855Z,18.86
2023-04-23T08:35:20.837Z,18.87
2023-04-23T08:36:20.846Z,18.99
2023-04-23T08:37:30.215Z,19.10
2023-04-23T08:38:21.837Z,19.13
2023-04-23T08:39:20.749Z,19.25
2023-04-23T08:40:20.773Z,19.58
2023-04-23T08:41:20.755Z,19.86
2023-04-23T08:42:20.742Z,19.98
2023-04-23T08:43:20.724Z,20.02
2023-04-23T08:44:20.781Z,20.10
2023-04-23T08:45:20.673Z,20.21
2023-04-23T08:46:20.716Z,20.43
2023-04-23T08:47:20.671Z,20.59
2023-04-23T08:48:20.689Z,20.81
2023-04-23T08:49:20.611Z,21.09
2023-04-23T08:50:20.692Z,21.20
2023-04-23T08:51:20.587Z,21.09
2023-04-23T08:52:20.601Z,20.83
2023-04-23T08:53:20.598Z,20.51
2023-04-23T08:54:20.578Z,20.64
2023-04-23T08:55:20.571Z,20.69
2023-04-23T08:56:20.698Z,20.68
2023-04-23T08:57:20.514Z,20.89
2023-04-23T08:58:20.555Z,21.24
2023-04-23T08:59:20.487Z,21.26
2023-04-23T09:00:20.508Z,21.04
2023-04-23T09:01:20.519Z,21.13
2023-04-23T09:02:20.706Z,21.38
2023-04-23T09:03:20.485Z,21.64
2023-04-23T09:04:20.447Z,21.67
2023-04-23T09:05:20.430Z,21.42
2023-04-23T09:06:20.416Z,21.39
2023-04-23T09:07:20.403Z,21.51
2023-04-23T09:08:20.448Z,21.09
2023-04-23T09:09:20.349Z,20.42
2023-04-23T09:10:20.384Z,20.15
2023-04-23T09:11:20.327Z,19.84
2023-04-23T09:12:20.345Z,19.13
2023-04-23T09:13:20.310Z,19.66
2023-04-23T09:14:20.337Z,20.13
2023-04-23T09:15:20.306Z,20.54
2023-04-23T09:16:20.318Z,21.08
2023-04-23T09:17:20.236Z,21.46
2023-04-23T09:18:20.261Z,21.72
2023-04-23T09:19:20.237Z,21.88
2023-04-23T09:20:20.314Z,22.22
2023-04-23T09:21:20.197Z,22.01
2023-04-23T09:22:20.233Z,21.98
2023-04-23T09:23:20.191Z,22.19
2023-04-23T09:24:20.139Z,22.19
2023-04-23T09:25:20.162Z,22.13
2023-04-23T09:26:20.184Z,21.42
2023-04-23T09:27:20.131Z,20.74
2023-04-23T09:28:20.137Z,20.25
2023-04-23T09:29:20.071Z,20.72
2023-04-23T09:30:20.148Z,21.06
2023-04-23T09:31:20.082Z,21.13
2023-04-23T09:32:20.337Z,21.46
2023-04-23T09:33:20.060Z,21.91
2023-04-23T09:34:20.037Z,22.39
2023-04-23T09:35:20.088Z,22.82
2023-04-23T09:36:20.034Z,22.87
2023-04-23T09:37:20.062Z,22.32
2023-04-23T09:38:20.033Z,22.17
2023-04-23T09:39:19.932Z,21.97
2023-04-23T09:40:20.108Z,20.38
2023-04-23T09:41:19.940Z,20.08
2023-04-23T09:42:19.918Z,20.02
2023-04-23T09:43:19.937Z,20.06
2023-04-23T09:44:20.026Z,20.16
2023-04-23T09:45:19.872Z,20.30
2023-04-23T09:46:19.913Z,20.42
2023-04-23T09:47:19.848Z,20.76
2023-04-23T09:48:19.837Z,21.29
2023-04-23T09:49:19.864Z,21.92
2023-04-23T09:50:20.050Z,21.94
2023-04-23T09:51:19.770Z,21.98
2023-04-23T09:52:19.798Z,21.85
2023-04-23T09:53:19.776Z,21.63
2023-04-23T09:54:19.754Z,21.61
2023-04-23T09:55:19.745Z,20.98
2023-04-23T09:56:19.875Z,20.33
2023-04-23T09:57:19.722Z,19.63
2023-04-23T09:58:19.723Z,19.65
2023-04-23T09:59:19.658Z,19.47
2023-04-23T10:00:20.045Z,19.43
2023-04-23T10:01:19.709Z,19.39
2023-04-23T10:02:19.767Z,19.24
2023-04-23T10:03:19.716Z,19.39
2023-04-23T10:04:19.920Z,19.75
2023-04-23T10:05:24.170Z,20.25
2023-04-23T10:06:36.863Z,21.26
2023-04-23T10:07:20.760Z,22.09
2023-04-23T10:08:19.609Z,22.57
2023-04-23T10:09:19.523Z,23.27
2023-04-23T10:10:19.572Z,23.86
2023-04-23T10:11:21.067Z,24.07
2023-04-23T10:13:21.278Z,23.55
2023-04-23T10:14:19.493Z,23.60
2023-04-23T10:15:19.472Z,23.79
2023-04-23T10:16:24.069Z,24.20
2023-04-23T10:17:20.456Z,24.63
2023-04-23T10:18:19.478Z,24.95
2023-04-23T10:19:19.511Z,24.68
2023-04-23T10:20:19.422Z,24.24
2023-04-23T10:21:19.400Z,23.43
2023-04-23T10:22:20.271Z,23.53
2023-04-23T10:23:19.336Z,24.19
2023-04-23T10:24:19.349Z,24.24
2023-04-23T10:25:19.453Z,24.13
2023-04-23T10:26:19.317Z,23.95
2023-04-23T10:28:19.317Z,24.41
2023-04-23T10:29:19.258Z,24.59
2023-04-23T10:30:19.625Z,23.24
2023-04-23T10:31:19.304Z,22.13
2023-04-23T10:32:19.251Z,20.84
2023-04-23T10:33:29.373Z,20.71
2023-04-23T10:34:20.258Z,21.39
2023-04-23T10:35:19.215Z,22.49
2023-04-23T10:36:19.214Z,23.47
2023-04-23T10:37:19.271Z,23.79
2023-04-23T10:38:19.187Z,24.13
2023-04-23T10:39:27.447Z,24.27
2023-04-23T10:40:20.142Z,23.05
2023-04-23T10:41:20.702Z,21.53
2023-04-23T10:42:19.106Z,21.44
2023-04-23T10:43:19.132Z,21.27
2023-04-23T10:44:32.984Z,20.98
2023-04-23T10:45:24.837Z,20.86
2023-04-23T10:46:20.109Z,21.59
2023-04-23T10:47:19.044Z,22.44
2023-04-23T10:48:19.021Z,22.93
2023-04-23T10:49:19.115Z,23.70
2023-04-23T10:50:19.132Z,23.12
2023-04-23T10:51:59.156Z,21.56
2023-04-23T10:52:22.801Z,21.06
2023-04-23T10:53:18.932Z,21.34
2023-04-23T10:54:18.943Z,21.83
2023-04-23T10:55:19.075Z,21.99
2023-04-23T10:56:18.955Z,20.89
2023-04-23T10:57:18.882Z,20.05
2023-04-23T10:58:18.905Z,19.88
2023-04-23T10:59:18.848Z,19.76
2023-04-23T11:00:18.854Z,20.46
2023-04-23T11:01:18.876Z,21.17
2023-04-23T11:02:18.914Z,21.34
2023-04-23T11:03:19.014Z,21.81
2023-04-23T11:04:19.012Z,20.79
2023-04-23T11:05:18.789Z,21.27
2023-04-23T11:06:18.810Z,21.51
2023-04-23T11:07:18.759Z,20.56
2023-04-23T11:08:20.025Z,19.68
2023-04-23T11:09:18.747Z,19.61
2023-04-23T11:10:18.772Z,19.88
2023-04-23T11:11:18.685Z,20.06
2023-04-23T11:12:18.700Z,20.27
2023-04-23T11:13:18.726Z,20.58
2023-04-23T11:14:18.669Z,21.08
2023-04-23T11:15:18.660Z,21.24
2023-04-23T11:16:18.874Z,21.26
2023-04-23T11:17:18.612Z,22.25
2023-04-23T11:18:18.649Z,23.17
2023-04-23T11:19:20.586Z,22.83
2023-04-23T11:20:18.584Z,21.94
2023-04-23T11:21:18.577Z,21.02
2023-04-23T11:22:18.573Z,20.24
2023-04-23T11:23:18.557Z,20.02
2023-04-23T11:24:18.566Z,19.86
2023-04-23T11:25:18.604Z,19.21
2023-04-23T11:26:18.511Z,18.95
2023-04-23T11:27:18.499Z,18.97
2023-04-23T11:28:18.510Z,19.25
2023-04-23T11:29:18.443Z,19.55
2023-04-23T11:30:18.492Z,20.13
2023-04-23T11:31:18.451Z,20.49
2023-04-23T11:32:18.513Z,21.08
2023-04-23T11:33:18.437Z,20.84
2023-04-23T11:34:18.410Z,21.32
2023-04-23T11:35:18.381Z,21.95
2023-04-23T11:36:18.403Z,22.59
2023-04-23T11:37:18.359Z,22.82
2023-04-23T11:38:18.371Z,22.67
2023-04-23T11:39:18.304Z,22.69
2023-04-23T11:40:18.322Z,22.13
2023-04-23T11:41:19.538Z,22.34
2023-04-23T11:42:18.291Z,22.06
2023-04-23T11:43:18.406Z,22.06
2023-04-23T11:44:18.268Z,21.32
2023-04-23T11:45:18.227Z,20.72
2023-04-23T11:46:18.283Z,21.09
2023-04-23T11:47:18.207Z,20.51
2023-04-23T11:48:18.213Z,19.97
2023-04-23T11:49:18.320Z,20.39
2023-04-23T11:50:18.185Z,20.76
2023-04-23T11:51:18.166Z,21.51
2023-04-23T11:52:18.187Z,21.92
2023-04-23T11:53:18.134Z,22.32
2023-04-23T11:54:18.162Z,21.92
2023-04-23T11:55:18.212Z,22.39
2023-04-23T11:56:18.107Z,22.39
2023-04-23T11:57:18.094Z,22.02
2023-04-23T11:58:18.104Z,21.14
2023-04-23T11:59:18.037Z,20.61
2023-04-23T12:00:18.047Z,20.69
2023-04-23T12:01:18.081Z,20.66
2023-04-23T12:02:18.147Z,20.24
2023-04-23T12:03:18.093Z,20.15
2023-04-23T12:04:18.230Z,20.08
2023-04-23T12:05:17.952Z,20.49
2023-04-23T12:06:17.998Z,20.90
2023-04-23T12:07:26.449Z,20.93
2023-04-23T12:08:18.945Z,21.02
2023-04-23T12:09:17.954Z,21.02
2023-04-23T12:10:17.929Z,20.74
2023-04-23T12:11:17.903Z,20.18
2023-04-23T12:12:17.920Z,19.93
2023-04-23T12:13:17.885Z,19.78
2023-04-23T12:14:17.874Z,19.60
2023-04-23T12:15:17.851Z,19.47
2023-04-23T12:16:17.883Z,19.48
2023-04-23T12:17:17.792Z,19.80
2023-04-23T12:18:17.829Z,20.05
2023-04-23T12:19:17.807Z,20.35
2023-04-23T12:20:17.791Z,20.35
2023-04-23T12:21:17.763Z,20.49
2023-04-23T12:22:17.754Z,20.65
2023-04-23T12:23:17.753Z,20.69
2023-04-23T12:24:17.761Z,20.35
2023-04-23T12:25:17.828Z,19.84
2023-04-23T12:26:17.770Z,19.51
2023-04-23T12:27:17.674Z,19.53
2023-04-23T12:28:17.678Z,19.65
2023-04-23T12:29:17.669Z,20.06
2023-04-23T12:30:17.678Z,21.23
2023-04-23T12:31:17.745Z,22.02
2023-04-23T12:32:17.626Z,22.01
2023-04-23T12:33:17.607Z,21.64
2023-04-23T12:34:17.604Z,21.05
2023-04-23T12:35:17.586Z,20.83
2023-04-23T12:36:17.595Z,21.35
2023-04-23T12:37:17.612Z,22.53
2023-04-23T12:38:17.577Z,22.84
2023-04-23T12:39:17.510Z,22.53
2023-04-23T12:40:18.284Z,22.47
2023-04-23T12:41:17.530Z,22.28
2023-04-23T12:42:41.028Z,22.39
2023-04-23T12:43:17.514Z,22.31
2023-04-23T12:44:17.503Z,22.38
2023-04-23T12:45:17.758Z,22.87
2023-04-23T12:46:17.424Z,23.26
2023-04-23T12:47:17.478Z,23.29
2023-04-23T12:48:18.212Z,22.67
2023-04-23T12:49:18.171Z,21.56
2023-04-23T12:50:17.413Z,21.24
2023-04-23T12:51:17.371Z,21.45
2023-04-23T12:52:17.530Z,21.06
2023-04-23T12:53:17.392Z,20.86
2023-04-23T12:54:17.381Z,21.09
2023-04-23T12:55:17.349Z,21.44
2023-04-23T12:56:17.304Z,21.53
2023-04-23T12:57:18.291Z,21.53
2023-04-23T12:58:17.288Z,21.39